Terminal Aerodrome Forecast
Issued by NWS

Home | Current Version | Previous Version | Text Only | Print | Product List | Glossary On
Versions: 1 2 3 4 5 6 7 8 9 10 11 12 13 14 15 16 17 18 19 20 21 22 23 24 25 26 27 28 29 30
000
FTUS41 KBUF 021135
TAFIAG
TAF
KIAG 021135Z 0212/0312 22008KT P6SM SCT080
     FM021500 24012G20KT P6SM SCT080 SCT250
     FM030000 21014KT P6SM BKN090
     FM030300 21014G28KT P6SM BKN080
     FM030800 22018G30KT P6SM VCSH BKN050=

USA.gov is the U.S. government's official web portal to all federal, state and local government web resources and services.